sensor_id;sensor_type;location;lat;lon;timestamp;pressure;altitude;pressure_sealevel;temperature
79756;BMP280;69239;50.678;12.280;2023-04-15T00:01:01;96537.13;;;7.90
79756;BMP280;69239;50.678;12.280;2023-04-15T00:03:27;96544.31;;;7.93
79756;BMP280;69239;50.678;12.280;2023-04-15T00:05:53;96534.50;;;7.90
79756;BMP280;69239;50.678;12.280;2023-04-15T00:08:19;96532.47;;;7.87
79756;BMP280;69239;50.678;12.280;2023-04-15T00:10:44;96540.50;;;7.90
79756;BMP280;69239;50.678;12.280;2023-04-15T00:13:11;96530.16;;;7.85
79756;BMP280;69239;50.678;12.280;2023-04-15T00:15:36;96524.47;;;7.83
79756;BMP280;69239;50.678;12.280;2023-04-15T00:18:02;96534.16;;;7.91
79756;BMP280;69239;50.678;12.280;2023-04-15T00:20:28;96527.41;;;7.90
79756;BMP280;69239;50.678;12.280;2023-04-15T00:22:54;96531.88;;;7.90
79756;BMP280;69239;50.678;12.280;2023-04-15T00:25:19;96523.06;;;7.86
79756;BMP280;69239;50.678;12.280;2023-04-15T00:27:44;96514.31;;;7.81
79756;BMP280;69239;50.678;12.280;2023-04-15T00:30:10;96524.31;;;7.88
79756;BMP280;69239;50.678;12.280;2023-04-15T00:32:35;96513.22;;;7.82
79756;BMP280;69239;50.678;12.280;2023-04-15T00:35:01;96516.75;;;7.87
79756;BMP280;69239;50.678;12.280;2023-04-15T00:37:27;96516.75;;;7.87
79756;BMP280;69239;50.678;12.280;2023-04-15T00:39:52;96505.06;;;7.84
79756;BMP280;69239;50.678;12.280;2023-04-15T00:42:18;96516.75;;;7.87
79756;BMP280;69239;50.678;12.280;2023-04-15T00:44:44;96502.25;;;7.80
79756;BMP280;69239;50.678;12.280;2023-04-15T00:47:10;96517.25;;;7.89
79756;BMP280;69239;50.678;12.280;2023-04-15T00:49:35;96505.38;;;7.82
79756;BMP280;69239;50.678;12.280;2023-04-15T00:52:02;96509.66;;;7.87
79756;BMP280;69239;50.678;12.280;2023-04-15T00:54:27;96505.38;;;7.82
79756;BMP280;69239;50.678;12.280;2023-04-15T00:56:53;96508.00;;;7.82
79756;BMP280;69239;50.678;12.280;2023-04-15T00:59:19;96500.00;;;7.79
79756;BMP280;69239;50.678;12.280;2023-04-15T01:01:45;96495.97;;;7.81
79756;BMP280;69239;50.678;12.280;2023-04-15T01:04:11;96506.13;;;7.83
79756;BMP280;69239;50.678;12.280;2023-04-15T01:06:37;96499.66;;;7.80
79756;BMP280;69239;50.678;12.280;2023-04-15T01:09:02;96498.13;;;7.79
79756;BMP280;69239;50.678;12.280;2023-04-15T01:11:28;96496.44;;;7.83
79756;BMP280;69239;50.678;12.280;2023-04-15T01:13:54;96503.19;;;7.85
79756;BMP280;69239;50.678;12.280;2023-04-15T01:16:21;96499.03;;;7.83
79756;BMP280;69239;50.678;12.280;2023-04-15T01:18:46;96479.94;;;7.74
79756;BMP280;69239;50.678;12.280;2023-04-15T01:21:11;96493.66;;;7.80
79756;BMP280;69239;50.678;12.280;2023-04-15T01:23:37;96492.91;;;7.79
79756;BMP280;69239;50.678;12.280;2023-04-15T01:26:04;96496.59;;;7.78
79756;BMP280;69239;50.678;12.280;2023-04-15T01:28:30;96485.19;;;7.74
79756;BMP280;69239;50.678;12.280;2023-04-15T01:31:11;96492.44;;;7.77
79756;BMP280;69239;50.678;12.280;2023-04-15T01:33:38;96490.91;;;7.76
79756;BMP280;69239;50.678;12.280;2023-04-15T01:36:04;96475.66;;;7.70
79756;BMP280;69239;50.678;12.280;2023-04-15T01:38:31;96483.38;;;7.75
79756;BMP280;69239;50.678;12.280;2023-04-15T01:40:57;96483.66;;;7.73
79756;BMP280;69239;50.678;12.280;2023-04-15T01:43:23;96477.50;;;7.69
79756;BMP280;69239;50.678;12.280;2023-04-15T01:45:48;96470.75;;;7.68
79756;BMP280;69239;50.678;12.280;2023-04-15T01:48:14;96475.34;;;7.71
79756;BMP280;69239;50.678;12.280;2023-04-15T01:50:39;96483.97;;;7.72
79756;BMP280;69239;50.678;12.280;2023-04-15T01:53:05;96473.03;;;7.70
79756;BMP280;69239;50.678;12.280;2023-04-15T01:55:30;96479.38;;;7.69
79756;BMP280;69239;50.678;12.280;2023-04-15T01:57:56;96478.41;;;7.73
79756;BMP280;69239;50.678;12.280;2023-04-15T02:00:21;96475.78;;;7.73
79756;BMP280;69239;50.678;12.280;2023-04-15T02:02:47;96474.72;;;7.74
79756;BMP280;69239;50.678;12.280;2023-04-15T02:05:12;96468.56;;;7.70
79756;BMP280;69239;50.678;12.280;2023-04-15T02:07:38;96468.69;;;7.74
79756;BMP280;69239;50.678;12.280;2023-04-15T02:10:04;96465.78;;;7.75
79756;BMP280;69239;50.678;12.280;2023-04-15T02:12:29;96461.16;;;7.72
79756;BMP280;69239;50.678;12.280;2023-04-15T02:14:55;96457.00;;;7.71
79756;BMP280;69239;50.678;12.280;2023-04-15T02:17:20;96457.47;;;7.73
79756;BMP280;69239;50.678;12.280;2023-04-15T02:19:46;96454.38;;;7.71
79756;BMP280;69239;50.678;12.280;2023-04-15T02:22:12;96460.06;;;7.73
79756;BMP280;69239;50.678;12.280;2023-04-15T02:24:42;96449.03;;;7.68
79756;BMP280;69239;50.678;12.280;2023-04-15T02:27:08;96457.47;;;7.73
79756;BMP280;69239;50.678;12.280;2023-04-15T02:29:33;96456.56;;;7.69
79756;BMP280;69239;50.678;12.280;2023-04-15T02:31:58;96448.25;;;7.67
79756;BMP280;69239;50.678;12.280;2023-04-15T02:34:24;96451.94;;;7.66
79756;BMP280;69239;50.678;12.280;2023-04-15T02:36:51;96443.50;;;7.61
79756;BMP280;69239;50.678;12.280;2023-04-15T02:39:20;96448.88;;;7.64
79756;BMP280;69239;50.678;12.280;2023-04-15T02:41:45;96443.78;;;7.59
79756;BMP280;69239;50.678;12.280;2023-04-15T02:44:15;96451.03;;;7.62
79756;BMP280;69239;50.678;12.280;2023-04-15T02:46:43;96433.97;;;7.56
79756;BMP280;69239;50.678;12.280;2023-04-15T02:49:08;96437.47;;;7.60
79756;BMP280;69239;50.678;12.280;2023-04-15T02:51:34;96436.69;;;7.60
79756;BMP280;69239;50.678;12.280;2023-04-15T02:54:00;96434.41;;;7.58
79756;BMP280;69239;50.678;12.280;2023-04-15T02:56:25;96429.81;;;7.55
79756;BMP280;69239;50.678;12.280;2023-04-15T02:58:51;96428.13;;;7.50
79756;BMP280;69239;50.678;12.280;2023-04-15T03:01:20;96431.19;;;7.52
79756;BMP280;69239;50.678;12.280;2023-04-15T03:03:46;96425.66;;;7.54
79756;BMP280;69239;50.678;12.280;2023-04-15T03:06:11;96431.94;;;7.53
79756;BMP280;69239;50.678;12.280;2023-04-15T03:08:36;96416.09;;;7.49
79756;BMP280;69239;50.678;12.280;2023-04-15T03:11:02;96422.75;;;7.47
79756;BMP280;69239;50.678;12.280;2023-04-15T03:13:28;96427.34;;;7.50
79756;BMP280;69239;50.678;12.280;2023-04-15T03:15:54;96429.50;;;7.48
79756;BMP280;69239;50.678;12.280;2023-04-15T03:18:19;96417.69;;;7.42
79756;BMP280;69239;50.678;12.280;2023-04-15T03:20:44;96414.28;;;7.41
79756;BMP280;69239;50.678;12.280;2023-04-15T03:23:10;96410.91;;;7.41
79756;BMP280;69239;50.678;12.280;2023-04-15T03:25:35;96411.34;;;7.43
79756;BMP280;69239;50.678;12.280;2023-04-15T03:28:02;96410.91;;;7.41
79756;BMP280;69239;50.678;12.280;2023-04-15T03:30:27;96400.59;;;7.36
79756;BMP280;69239;50.678;12.280;2023-04-15T03:32:52;96393.03;;;7.34
79756;BMP280;69239;50.678;12.280;2023-04-15T03:35:18;96396.28;;;7.40
79756;BMP280;69239;50.678;12.280;2023-04-15T03:37:43;96399.50;;;7.37
79756;BMP280;69239;50.678;12.280;2023-04-15T03:40:09;96406.75;;;7.40
79756;BMP280;69239;50.678;12.280;2023-04-15T03:42:34;96399.50;;;7.37
79756;BMP280;69239;50.678;12.280;2023-04-15T03:45:00;96403.66;;;7.38
79756;BMP280;69239;50.678;12.280;2023-04-15T03:47:25;96404.41;;;7.38
79756;BMP280;69239;50.678;12.280;2023-04-15T03:49:50;96410.41;;;7.39
79756;BMP280;69239;50.678;12.280;2023-04-15T03:52:16;96398.28;;;7.34
79756;BMP280;69239;50.678;12.280;2023-04-15T03:54:41;96403.06;;;7.41
79756;BMP280;69239;50.678;12.280;2023-04-15T03:57:06;96400.44;;;7.41
79756;BMP280;69239;50.678;12.280;2023-04-15T03:59:32;96395.50;;;7.39
79756;BMP280;69239;50.678;12.280;2023-04-15T04:01:57;96381.16;;;7.37
79756;BMP280;69239;50.678;12.280;2023-04-15T04:04:22;96372.88;;;7.35
79756;BMP280;69239;50.678;12.280;2023-04-15T04:06:48;96376.38;;;7.39
79756;BMP280;69239;50.678;12.280;2023-04-15T04:09:13;96368.25;;;7.32
79756;BMP280;69239;50.678;12.280;2023-04-15T04:11:38;96385.03;;;7.39
79756;BMP280;69239;50.678;12.280;2023-04-15T04:14:04;96389.47;;;7.39
79756;BMP280;69239;50.678;12.280;2023-04-15T04:16:29;96388.56;;;7.35
79756;BMP280;69239;50.678;12.280;2023-04-15T04:18:55;96401.50;;;7.40
79756;BMP280;69239;50.678;12.280;2023-04-15T04:21:20;96395.34;;;7.36
79756;BMP280;69239;50.678;12.280;2023-04-15T04:23:46;96404.41;;;7.38
79756;BMP280;69239;50.678;12.280;2023-04-15T04:26:11;96402.56;;;7.39
79756;BMP280;69239;50.678;12.280;2023-04-15T04:28:37;96413.53;;;7.41
79756;BMP280;69239;50.678;12.280;2023-04-15T04:31:05;96407.81;;;7.39
79756;BMP280;69239;50.678;12.280;2023-04-15T04:33:30;96408.88;;;7.38
79756;BMP280;69239;50.678;12.280;2023-04-15T04:35:56;96417.38;;;7.43
79756;BMP280;69239;50.678;12.280;2023-04-15T04:38:21;96417.38;;;7.43
79756;BMP280;69239;50.678;12.280;2023-04-15T04:40:47;96410.13;;;7.40
79756;BMP280;69239;50.678;12.280;2023-04-15T04:43:12;96401.50;;;7.40
79756;BMP280;69239;50.678;12.280;2023-04-15T04:45:38;96409.50;;;7.43
79756;BMP280;69239;50.678;12.280;2023-04-15T04:48:04;96398.91;;;7.40
79756;BMP280;69239;50.678;12.280;2023-04-15T04:50:31;96409.81;;;7.42
79756;BMP280;69239;50.678;12.280;2023-04-15T04:52:56;96405.81;;;7.36
79756;BMP280;69239;50.678;12.280;2023-04-15T04:55:22;96412.59;;;7.37
79756;BMP280;69239;50.678;12.280;2023-04-15T04:57:47;96412.59;;;7.37
79756;BMP280;69239;50.678;12.280;2023-04-15T05:00:12;96416.59;;;7.34
79756;BMP280;69239;50.678;12.280;2023-04-15T05:02:38;96422.28;;;7.36
79756;BMP280;69239;50.678;12.280;2023-04-15T05:05:06;96432.94;;;7.40
79756;BMP280;69239;50.678;12.280;2023-04-15T05:07:31;96437.69;;;7.38
79756;BMP280;69239;50.678;12.280;2023-04-15T05:09:57;96424.59;;;7.38
79756;BMP280;69239;50.678;12.280;2023-04-15T05:12:22;96427.22;;;7.38
79756;BMP280;69239;50.678;12.280;2023-04-15T05:14:47;96432.31;;;7.43
79756;BMP280;69239;50.678;12.280;2023-04-15T05:17:13;96433.84;;;7.44
79756;BMP280;69239;50.678;12.280;2023-04-15T05:19:38;96428.16;;;7.42
79756;BMP280;69239;50.678;12.280;2023-04-15T05:22:03;96430.91;;;7.45
79756;BMP280;69239;50.678;12.280;2023-04-15T05:24:29;96433.97;;;7.47
79756;BMP280;69239;50.678;12.280;2023-04-15T05:26:54;96432.00;;;7.44
79756;BMP280;69239;50.678;12.280;2023-04-15T05:29:21;96424.91;;;7.45
79756;BMP280;69239;50.678;12.280;2023-04-15T05:31:46;96433.66;;;7.49
79756;BMP280;69239;50.678;12.280;2023-04-15T05:34:11;96430.28;;;7.48
79756;BMP280;69239;50.678;12.280;2023-04-15T05:36:37;96436.13;;;7.54
79756;BMP280;69239;50.678;12.280;2023-04-15T05:39:02;96432.44;;;7.55
79756;BMP280;69239;50.678;12.280;2023-04-15T05:41:28;96429.34;;;7.53
79756;BMP280;69239;50.678;12.280;2023-04-15T05:43:53;96429.91;;;7.59
79756;BMP280;69239;50.678;12.280;2023-04-15T05:46:19;96431.00;;;7.58
79756;BMP280;69239;50.678;12.280;2023-04-15T05:48:44;96435.31;;;7.62
79756;BMP280;69239;50.678;12.280;2023-04-15T05:51:10;96427.91;;;7.64
79756;BMP280;69239;50.678;12.280;2023-04-15T05:53:35;96439.34;;;7.68
79756;BMP280;69239;50.678;12.280;2023-04-15T05:56:01;96441.28;;;7.71
79756;BMP280;69239;50.678;12.280;2023-04-15T05:58:26;96435.59;;;7.69
79756;BMP280;69239;50.678;12.280;2023-04-15T06:00:52;96429.47;;;7.65
79756;BMP280;69239;50.678;12.280;2023-04-15T06:03:17;96439.13;;;7.73
79756;BMP280;69239;50.678;12.280;2023-04-15T06:05:42;96417.72;;;7.71
79756;BMP280;69239;50.678;12.280;2023-04-15T06:08:09;96429.13;;;7.75
79756;BMP280;69239;50.678;12.280;2023-04-15T06:10:34;96430.66;;;7.76
79756;BMP280;69239;50.678;12.280;2023-04-15T06:13:02;96426.97;;;7.77
79756;BMP280;69239;50.678;12.280;2023-04-15T06:15:28;96433.72;;;7.78
79756;BMP280;69239;50.678;12.280;2023-04-15T06:17:53;96427.06;;;7.81
79756;BMP280;69239;50.678;12.280;2023-04-15T06:20:18;96429.69;;;7.81
79756;BMP280;69239;50.678;12.280;2023-04-15T06:22:44;96420.78;;;7.73
79756;BMP280;69239;50.678;12.280;2023-04-15T06:25:09;96419.41;;;7.76
79756;BMP280;69239;50.678;12.280;2023-04-15T06:27:35;96432.97;;;7.78
79756;BMP280;69239;50.678;12.280;2023-04-15T06:30:00;96431.13;;;7.78
79756;BMP280;69239;50.678;12.280;2023-04-15T06:32:26;96430.66;;;7.76
79756;BMP280;69239;50.678;12.280;2023-04-15T06:34:51;96428.03;;;7.76
79756;BMP280;69239;50.678;12.280;2023-04-15T06:37:16;96430.66;;;7.76
79756;BMP280;69239;50.678;12.280;2023-04-15T06:39:42;96445.13;;;7.82
79756;BMP280;69239;50.678;12.280;2023-04-15T06:42:09;96435.28;;;7.79
79756;BMP280;69239;50.678;12.280;2023-04-15T06:44:35;96450.34;;;7.82
79756;BMP280;69239;50.678;12.280;2023-04-15T06:47:01;96445.13;;;7.82
79756;BMP280;69239;50.678;12.280;2023-04-15T06:49:27;96448.19;;;7.85
79756;BMP280;69239;50.678;12.280;2023-04-15T06:51:52;96456.97;;;7.89
79756;BMP280;69239;50.678;12.280;2023-04-15T06:54:17;96449.56;;;7.91
79756;BMP280;69239;50.678;12.280;2023-04-15T06:56:43;96457.84;;;7.93
79756;BMP280;69239;50.678;12.280;2023-04-15T06:59:08;96463.53;;;7.95
79756;BMP280;69239;50.678;12.280;2023-04-15T07:01:34;96457.84;;;7.93
79756;BMP280;69239;50.678;12.280;2023-04-15T07:03:59;96462.94;;;7.98
79756;BMP280;69239;50.678;12.280;2023-04-15T07:06:25;96462.16;;;7.97
79756;BMP280;69239;50.678;12.280;2023-04-15T07:08:51;96468.91;;;8.07
79756;BMP280;69239;50.678;12.280;2023-04-15T07:11:17;96462.56;;;8.08
79756;BMP280;69239;50.678;12.280;2023-04-15T07:13:42;96465.00;;;8.13
79756;BMP280;69239;50.678;12.280;2023-04-15T07:16:07;96470.53;;;8.20
79756;BMP280;69239;50.678;12.280;2023-04-15T07:18:33;96476.69;;;8.24
79756;BMP280;69239;50.678;12.280;2023-04-15T07:20:58;96478.22;;;8.25
79756;BMP280;69239;50.678;12.280;2023-04-15T07:23:24;96489.59;;;8.29
79756;BMP280;69239;50.678;12.280;2023-04-15T07:25:49;96478.50;;;8.32
79756;BMP280;69239;50.678;12.280;2023-04-15T07:28:16;96469.22;;;8.35
79756;BMP280;69239;50.678;12.280;2023-04-15T07:30:41;96461.63;;;8.42
79756;BMP280;69239;50.678;12.280;2023-04-15T07:33:07;96457.84;;;8.52
79756;BMP280;69239;50.678;12.280;2023-04-15T07:35:32;96457.03;;;8.60
79756;BMP280;69239;50.678;12.280;2023-04-15T07:37:57;96457.03;;;8.60
79756;BMP280;69239;50.678;12.280;2023-04-15T07:40:23;96463.06;;;8.60
79756;BMP280;69239;50.678;12.280;2023-04-15T07:42:48;96463.56;;;8.54
79756;BMP280;69239;50.678;12.280;2023-04-15T07:45:14;96483.28;;;8.60
79756;BMP280;69239;50.678;12.280;2023-04-15T07:47:40;96478.03;;;8.60
79756;BMP280;69239;50.678;12.280;2023-04-15T07:50:07;96482.19;;;8.61
79756;BMP280;69239;50.678;12.280;2023-04-15T07:52:33;96479.56;;;8.61
79756;BMP280;69239;50.678;12.280;2023-04-15T07:55:04;96479.69;;;8.64
79756;BMP280;69239;50.678;12.280;2023-04-15T07:57:31;96490.31;;;8.68
79756;BMP280;69239;50.678;12.280;2023-04-15T07:59:56;96492.28;;;8.71
79756;BMP280;69239;50.678;12.280;2023-04-15T08:02:21;96490.75;;;8.70
79756;BMP280;69239;50.678;12.280;2023-04-15T08:04:47;96498.00;;;8.73
79756;BMP280;69239;50.678;12.280;2023-04-15T08:07:12;96487.81;;;8.71
79756;BMP280;69239;50.678;12.280;2023-04-15T08:09:39;96490.75;;;8.70
79756;BMP280;69239;50.678;12.280;2023-04-15T08:12:04;96487.53;;;8.73
79756;BMP280;69239;50.678;12.280;2023-04-15T08:14:30;96495.81;;;8.75
79756;BMP280;69239;50.678;12.280;2023-04-15T08:16:55;96490.69;;;8.79
79756;BMP280;69239;50.678;12.280;2023-04-15T08:19:21;96472.31;;;8.79
79756;BMP280;69239;50.678;12.280;2023-04-15T08:21:47;96479.50;;;8.90
79756;BMP280;69239;50.678;12.280;2023-04-15T08:24:12;96472.97;;;8.96
79756;BMP280;69239;50.678;12.280;2023-04-15T08:26:37;96474.41;;;9.06
79756;BMP280;69239;50.678;12.280;2023-04-15T08:29:03;96476.09;;;9.11
79756;BMP280;69239;50.678;12.280;2023-04-15T08:31:28;96487.72;;;9.22
79756;BMP280;69239;50.678;12.280;2023-04-15T08:33:55;96488.28;;;9.27
79756;BMP280;69239;50.678;12.280;2023-04-15T08:36:21;96488.59;;;9.26
79756;BMP280;69239;50.678;12.280;2023-04-15T08:38:47;96494.00;;;9.29
79756;BMP280;69239;50.678;12.280;2023-04-15T08:41:22;96504.19;;;9.31
79756;BMP280;69239;50.678;12.280;2023-04-15T08:43:56;96506.81;;;9.31
79756;BMP280;69239;50.678;12.280;2023-04-15T08:46:22;96503.72;;;9.29
79756;BMP280;69239;50.678;12.280;2023-04-15T08:48:48;96504.59;;;9.33
79756;BMP280;69239;50.678;12.280;2023-04-15T08:51:15;96509.19;;;9.36
79756;BMP280;69239;50.678;12.280;2023-04-15T08:53:44;96513.16;;;9.42
79756;BMP280;69239;50.678;12.280;2023-04-15T08:56:13;96504.97;;;9.44
79756;BMP280;69239;50.678;12.280;2023-04-15T08:58:40;96511.78;;;9.57
79756;BMP280;69239;50.678;12.280;2023-04-15T09:01:05;96502.75;;;9.66
79756;BMP280;69239;50.678;12.280;2023-04-15T09:03:32;96510.19;;;9.77
79756;BMP280;69239;50.678;12.280;2023-04-15T09:05:58;96510.19;;;9.77
79756;BMP280;69239;50.678;12.280;2023-04-15T09:08:23;96515.00;;;9.75
79756;BMP280;69239;50.678;12.280;2023-04-15T09:10:49;96504.69;;;9.69
79756;BMP280;69239;50.678;12.280;2023-04-15T09:13:15;96512.38;;;9.75
79756;BMP280;69239;50.678;12.280;2023-04-15T09:15:40;96507.56;;;9.77
79756;BMP280;69239;50.678;12.280;2023-04-15T09:18:07;96515.00;;;9.75
79756;BMP280;69239;50.678;12.280;2023-04-15T09:20:38;96510.75;;;9.82
79756;BMP280;69239;50.678;12.280;2023-04-15T09:23:14;96507.69;;;9.80
79756;BMP280;69239;50.678;12.280;2023-04-15T09:25:41;96519.06;;;9.84
79756;BMP280;69239;50.678;12.280;2023-04-15T09:28:07;96520.59;;;9.85
79756;BMP280;69239;50.678;12.280;2023-04-15T09:30:33;96529.81;;;9.91
79756;BMP280;69239;50.678;12.280;2023-04-15T09:33:02;96532.13;;;9.93
79756;BMP280;69239;50.678;12.280;2023-04-15T09:35:32;96543.41;;;9.93
79756;BMP280;69239;50.678;12.280;2023-04-15T09:38:05;96529.28;;;9.86
79756;BMP280;69239;50.678;12.280;2023-04-15T09:40:40;96523.88;;;9.82
79756;BMP280;69239;50.678;12.280;2023-04-15T09:43:08;96533.09;;;9.88
79756;BMP280;69239;50.678;12.280;2023-04-15T09:45:34;96538.47;;;9.92
79756;BMP280;69239;50.678;12.280;2023-04-15T09:48:18;96537.94;;;9.86
79756;BMP280;69239;50.678;12.280;2023-04-15T09:50:45;96532.13;;;9.93
79756;BMP280;69239;50.678;12.280;2023-04-15T09:53:20;96540.88;;;9.97
79756;BMP280;69239;50.678;12.280;2023-04-15T09:55:52;96544.31;;;10.10
79756;BMP280;69239;50.678;12.280;2023-04-15T09:58:23;96548.13;;;10.24
79756;BMP280;69239;50.678;12.280;2023-04-15T10:00:51;96560.84;;;10.35
79756;BMP280;69239;50.678;12.280;2023-04-15T10:03:22;96555.91;;;10.33
79756;BMP280;69239;50.678;12.280;2023-04-15T10:05:50;96562.16;;;10.41
79756;BMP280;69239;50.678;12.280;2023-04-15T10:08:22;96555.50;;;10.43
79756;BMP280;69239;50.678;12.280;2023-04-15T10:10:49;96556.03;;;10.37
79756;BMP280;69239;50.678;12.280;2023-04-15T10:13:20;96563.72;;;10.42
79756;BMP280;69239;50.678;12.280;2023-04-15T10:15:57;96562.91;;;10.41
79756;BMP280;69239;50.678;12.280;2023-04-15T10:18:24;96564.72;;;10.37
79756;BMP280;69239;50.678;12.280;2023-04-15T10:20:51;96563.94;;;10.37
79756;BMP280;69239;50.678;12.280;2023-04-15T10:23:16;96560.84;;;10.35
79756;BMP280;69239;50.678;12.280;2023-04-15T10:25:44;96565.03;;;10.36
79756;BMP280;69239;50.678;12.280;2023-04-15T10:28:10;96565.81;;;10.36
79756;BMP280;69239;50.678;12.280;2023-04-15T10:30:36;96552.19;;;10.34
79756;BMP280;69239;50.678;12.280;2023-04-15T10:33:04;96562.16;;;10.41
79756;BMP280;69239;50.678;12.280;2023-04-15T10:35:31;96567.84;;;10.55
79756;BMP280;69239;50.678;12.280;2023-04-15T10:37:57;96568.81;;;10.62
79756;BMP280;69239;50.678;12.280;2023-04-15T10:42:56;96569.16;;;10.73
79756;BMP280;69239;50.678;12.280;2023-04-15T10:45:24;96569.78;;;10.82
79756;BMP280;69239;50.678;12.280;2023-04-15T10:47:54;96568.06;;;10.86
79756;BMP280;69239;50.678;12.280;2023-04-15T10:50:19;96571.53;;;10.90
79756;BMP280;69239;50.678;12.280;2023-04-15T10:52:45;96564.09;;;10.92
79756;BMP280;69239;50.678;12.280;2023-04-15T10:55:18;96573.59;;;10.97
79756;BMP280;69239;50.678;12.280;2023-04-15T10:57:43;96574.06;;;10.99
79756;BMP280;69239;50.678;12.280;2023-04-15T11:02:51;96571.28;;;10.95
79756;BMP280;69239;50.678;12.280;2023-04-15T11:05:17;96580.53;;;10.89
79756;BMP280;69239;50.678;12.280;2023-04-15T11:12:45;96575.50;;;10.84
79756;BMP280;69239;50.678;12.280;2023-04-15T11:15:31;96575.50;;;10.84
79756;BMP280;69239;50.678;12.280;2023-04-15T11:20:35;96586.88;;;11.01
79756;BMP280;69239;50.678;12.280;2023-04-15T11:23:01;96594.09;;;11.04
79756;BMP280;69239;50.678;12.280;2023-04-15T11:25:29;96590.06;;;11.06
79756;BMP280;69239;50.678;12.280;2023-04-15T11:27:55;96590.47;;;11.08
79756;BMP280;69239;50.678;12.280;2023-04-15T11:30:23;96581.47;;;11.09
79756;BMP280;69239;50.678;12.280;2023-04-15T11:32:59;96589.56;;;11.16
79756;BMP280;69239;50.678;12.280;2023-04-15T11:35:25;96589.25;;;11.18
79756;BMP280;69239;50.678;12.280;2023-04-15T11:37:50;96596.91;;;11.23
79756;BMP280;69239;50.678;12.280;2023-04-15T11:40:21;96597.78;;;11.27
79756;BMP280;69239;50.678;12.280;2023-04-15T11:43:02;96595.91;;;11.27
79756;BMP280;69239;50.678;12.280;2023-04-15T11:45:28;96603.75;;;11.40
79756;BMP280;69239;50.678;12.280;2023-04-15T11:47:53;96605.38;;;11.44
79756;BMP280;69239;50.678;12.280;2023-04-15T11:50:20;96606.28;;;11.48
79756;BMP280;69239;50.678;12.280;2023-04-15T11:52:59;96609.75;;;11.52
79756;BMP280;69239;50.678;12.280;2023-04-15T11:55:25;96613.72;;;11.46
79756;BMP280;69239;50.678;12.280;2023-04-15T11:58:15;96609.38;;;11.38
79756;BMP280;69239;50.678;12.280;2023-04-15T12:00:45;96621.00;;;11.37
79756;BMP280;69239;50.678;12.280;2023-04-15T12:03:12;96620.56;;;11.35
79756;BMP280;69239;50.678;12.280;2023-04-15T12:09:13;96625.31;;;11.30
79756;BMP280;69239;50.678;12.280;2023-04-15T12:11:55;96628.53;;;11.23
79756;BMP280;69239;50.678;12.280;2023-04-15T12:14:25;96635.22;;;11.20
79756;BMP280;69239;50.678;12.280;2023-04-15T12:16:53;96632.81;;;11.15
79756;BMP280;69239;50.678;12.280;2023-04-15T12:19:24;96636.22;;;11.16
79756;BMP280;69239;50.678;12.280;2023-04-15T12:21:50;96641.50;;;11.16
79756;BMP280;69239;50.678;12.280;2023-04-15T12:24:19;96649.84;;;11.18
79756;BMP280;69239;50.678;12.280;2023-04-15T12:26:51;96639.97;;;11.15
79756;BMP280;69239;50.678;12.280;2023-04-15T12:29:17;96639.97;;;11.15
79756;BMP280;69239;50.678;12.280;2023-04-15T12:34:13;96656.28;;;11.20
79756;BMP280;69239;50.678;12.280;2023-04-15T12:36:39;96663.88;;;11.22
79756;BMP280;69239;50.678;12.280;2023-04-15T12:39:05;96670.56;;;11.19
79756;BMP280;69239;50.678;12.280;2023-04-15T12:41:31;96666.94;;;11.12
79756;BMP280;69239;50.678;12.280;2023-04-15T12:43:57;96675.63;;;11.12
79756;BMP280;69239;50.678;12.280;2023-04-15T12:46:23;96674.63;;;11.05
79756;BMP280;69239;50.678;12.280;2023-04-15T12:48:49;96679.25;;;11.08
79756;BMP280;69239;50.678;12.280;2023-04-15T12:51:15;96675.31;;;11.02
79756;BMP280;69239;50.678;12.280;2023-04-15T12:53:40;96682.88;;;11.03
79756;BMP280;69239;50.678;12.280;2023-04-15T12:56:06;96688.91;;;11.04
79756;BMP280;69239;50.678;12.280;2023-04-15T12:58:31;96684.00;;;11.02
79756;BMP280;69239;50.678;12.280;2023-04-15T13:00:57;96697.16;;;11.02
79756;BMP280;69239;50.678;12.280;2023-04-15T13:03:23;96686.06;;;10.97
79756;BMP280;69239;50.678;12.280;2023-04-15T13:05:48;96692.09;;;10.97
79756;BMP280;69239;50.678;12.280;2023-04-15T13:08:13;96698.59;;;11.00
79756;BMP280;69239;50.678;12.280;2023-04-15T13:10:39;96702.31;;;10.99
79756;BMP280;69239;50.678;12.280;2023-04-15T13:13:06;96699.53;;;10.95
79756;BMP280;69239;50.678;12.280;2023-04-15T13:15:32;96697.59;;;10.92
79756;BMP280;69239;50.678;12.280;2023-04-15T13:17:57;96706.81;;;10.98
79756;BMP280;69239;50.678;12.280;2023-04-15T13:20:22;96702.31;;;10.99
79756;BMP280;69239;50.678;12.280;2023-04-15T13:22:48;96705.38;;;11.01
79756;BMP280;69239;50.678;12.280;2023-04-15T13:25:13;96707.25;;;11.00
79756;BMP280;69239;50.678;12.280;2023-04-15T13:27:39;96712.72;;;10.95
79756;BMP280;69239;50.678;12.280;2023-04-15T13:30:06;96709.69;;;10.93
79756;BMP280;69239;50.678;12.280;2023-04-15T13:32:32;96712.63;;;10.91
79756;BMP280;69239;50.678;12.280;2023-04-15T13:34:57;96715.28;;;10.91
79756;BMP280;69239;50.678;12.280;2023-04-15T13:37:27;96718.53;;;10.88
79756;BMP280;69239;50.678;12.280;2023-04-15T13:39:53;96720.31;;;10.84
79756;BMP280;69239;50.678;12.280;2023-04-15T13:42:18;96726.66;;;10.83
79756;BMP280;69239;50.678;12.280;2023-04-15T13:44:44;96722.03;;;10.80
79756;BMP280;69239;50.678;12.280;2023-04-15T13:47:09;96726.34;;;10.85
79756;BMP280;69239;50.678;12.280;2023-04-15T13:49:35;96738.28;;;10.82
79756;BMP280;69239;50.678;12.280;2023-04-15T13:52:00;96731.41;;;10.78
79756;BMP280;69239;50.678;12.280;2023-04-15T13:54:25;96733.44;;;10.72
79756;BMP280;69239;50.678;12.280;2023-04-15T13:56:51;96733.03;;;10.70
79756;BMP280;69239;50.678;12.280;2023-04-15T13:59:16;96734.31;;;10.76
79756;BMP280;69239;50.678;12.280;2023-04-15T14:01:42;96724.91;;;10.75
79756;BMP280;69239;50.678;12.280;2023-04-15T14:04:08;96734.78;;;10.78
79756;BMP280;69239;50.678;12.280;2023-04-15T14:06:33;96730.94;;;10.76
79756;BMP280;69239;50.678;12.280;2023-04-15T14:08:59;96732.78;;;10.75
79756;BMP280;69239;50.678;12.280;2023-04-15T14:11:24;96739.28;;;10.78
79756;BMP280;69239;50.678;12.280;2023-04-15T14:13:50;96745.94;;;10.75
79756;BMP280;69239;50.678;12.280;2023-04-15T14:16:15;96749.59;;;10.71
79756;BMP280;69239;50.678;12.280;2023-04-15T14:18:42;96745.72;;;10.68